sensor_id;sensor_type;location;lat;lon;timestamp;pressure;altitude;pressure_sealevel;temperature;humidity
57948;BME280;43754;56.992;24.292;2023-01-01T00:01:37;100142.63;;;6.83;100.00
57948;BME280;43754;56.992;24.292;2023-01-01T00:04:12;100132.13;;;6.81;100.00
57948;BME280;43754;56.992;24.292;2023-01-01T00:06:45;100145.44;;;6.89;100.00
57948;BME280;43754;56.992;24.292;2023-01-01T00:09:19;100139.63;;;6.86;100.00
57948;BME280;43754;56.992;24.292;2023-01-01T00:12:10;100138.47;;;6.88;100.00
57948;BME280;43754;56.992;24.292;2023-01-01T00:14:42;100134.97;;;6.88;100.00
57948;BME280;43754;56.992;24.292;2023-01-01T00:17:15;100139.94;;;6.91;100.00
57948;BME280;43754;56.992;24.292;2023-01-01T00:19:47;100139.78;;;6.92;100.00
57948;BME280;43754;56.992;24.292;2023-01-01T00:22:19;100145.75;;;6.94;100.00
57948;BME280;43754;56.992;24.292;2023-01-01T00:25:12;100152.06;;;6.93;100.00
57948;BME280;43754;56.992;24.292;2023-01-01T00:27:48;100150.56;;;6.99;100.00
57948;BME280;43754;56.992;24.292;2023-01-01T00:30:20;100156.72;;;7.00;100.00
57948;BME280;43754;56.992;24.292;2023-01-01T00:32:52;100157.22;;;7.03;100.00
57948;BME280;43754;56.992;24.292;2023-01-01T00:35:26;100153.56;;;7.04;100.00
57948;BME280;43754;56.992;24.292;2023-01-01T00:37:58;100150.88;;;7.04;100.00
57948;BME280;43754;56.992;24.292;2023-01-01T00:40:31;100143.91;;;7.03;100.00
57948;BME280;43754;56.992;24.292;2023-01-01T00:43:03;100160.56;;;7.05;100.00
57948;BME280;43754;56.992;24.292;2023-01-01T00:45:35;100167.03;;;7.03;100.00
57948;BME280;43754;56.992;24.292;2023-01-01T00:48:07;100163.03;;;7.07;100.00
57948;BME280;43754;56.992;24.292;2023-01-01T00:50:39;100172.81;;;7.14;100.00
57948;BME280;43754;56.992;24.292;2023-01-01T00:53:11;100180.03;;;7.14;100.00
57948;BME280;43754;56.992;24.292;2023-01-01T00:55:46;100172.50;;;7.17;100.00
57948;BME280;43754;56.992;24.292;2023-01-01T00:58:19;100176.50;;;7.21;100.00
57948;BME280;43754;56.992;24.292;2023-01-01T01:00:51;100180.63;;;7.24;100.00
57948;BME280;43754;56.992;24.292;2023-01-01T01:03:24;100183.13;;;7.25;100.00
57948;BME280;43754;56.992;24.292;2023-01-01T01:06:07;100174.31;;;7.25;100.00
57948;BME280;43754;56.992;24.292;2023-01-01T01:08:42;100170.97;;;7.23;100.00
57948;BME280;43754;56.992;24.292;2023-01-01T01:11:18;100181.47;;;7.24;100.00
57948;BME280;43754;56.992;24.292;2023-01-01T01:13:52;100184.78;;;7.26;100.00
57948;BME280;43754;56.992;24.292;2023-01-01T01:16:26;100180.63;;;7.24;100.00
57948;BME280;43754;56.992;24.292;2023-01-01T01:18:59;100183.97;;;7.26;100.00
57948;BME280;43754;56.992;24.292;2023-01-01T01:21:33;100183.78;;;7.27;100.00
57948;BME280;43754;56.992;24.292;2023-01-01T01:24:05;100185.63;;;7.27;100.00
57948;BME280;43754;56.992;24.292;2023-01-01T01:26:39;100185.63;;;7.27;100.00
57948;BME280;43754;56.992;24.292;2023-01-01T01:29:12;100199.47;;;7.30;100.00
57948;BME280;43754;56.992;24.292;2023-01-01T01:31:44;100191.09;;;7.33;100.00
57948;BME280;43754;56.992;24.292;2023-01-01T01:34:16;100192.78;;;7.34;100.00
57948;BME280;43754;56.992;24.292;2023-01-01T01:36:54;100187.44;;;7.34;100.00
57948;BME280;43754;56.992;24.292;2023-01-01T01:39:26;100182.13;;;7.34;100.00
57948;BME280;43754;56.992;24.292;2023-01-01T01:42:00;100181.91;;;7.36;100.00
57948;BME280;43754;56.992;24.292;2023-01-01T01:44:55;100192.91;;;7.41;100.00
57948;BME280;43754;56.992;24.292;2023-01-01T01:47:31;100180.22;;;7.43;100.00
57948;BME280;43754;56.992;24.292;2023-01-01T01:50:08;100182.56;;;7.46;100.00
57948;BME280;43754;56.992;24.292;2023-01-01T01:52:48;100186.91;;;7.47;100.00
57948;BME280;43754;56.992;24.292;2023-01-01T01:55:25;100188.06;;;7.45;100.00
57948;BME280;43754;56.992;24.292;2023-01-01T01:58:01;100185.22;;;7.46;100.00
57948;BME280;43754;56.992;24.292;2023-01-01T02:00:34;100184.50;;;7.52;100.00
57948;BME280;43754;56.992;24.292;2023-01-01T02:03:07;100192.34;;;7.54;100.00
57948;BME280;43754;56.992;24.292;2023-01-01T02:05:40;100195.38;;;7.51;100.00
57948;BME280;43754;56.992;24.292;2023-01-01T02:08:12;100187.19;;;7.52;100.00
57948;BME280;43754;56.992;24.292;2023-01-01T02:10:46;100190.31;;;7.56;100.00
57948;BME280;43754;56.992;24.292;2023-01-01T02:13:20;100179.34;;;7.59;100.00
57948;BME280;43754;56.992;24.292;2023-01-01T02:15:54;100194.97;;;7.62;100.00
57948;BME280;43754;56.992;24.292;2023-01-01T02:18:32;100193.31;;;7.61;100.00
57948;BME280;43754;56.992;24.292;2023-01-01T02:21:12;100188.16;;;7.59;100.00
57948;BME280;43754;56.992;24.292;2023-01-01T02:23:59;100171.31;;;7.59;100.00
57948;BME280;43754;56.992;24.292;2023-01-01T02:26:41;100180.28;;;7.66;100.00
57948;BME280;43754;56.992;24.292;2023-01-01T02:29:21;100176.63;;;7.67;100.00
57948;BME280;43754;56.992;24.292;2023-01-01T02:31:58;100173.44;;;7.71;100.00
57948;BME280;43754;56.992;24.292;2023-01-01T02:34:34;100163.41;;;7.73;100.00
57948;BME280;43754;56.992;24.292;2023-01-01T02:37:11;100165.75;;;7.76;100.00
57948;BME280;43754;56.992;24.292;2023-01-01T02:39:49;100166.91;;;7.74;100.00
57948;BME280;43754;56.992;24.292;2023-01-01T02:42:25;100168.94;;;7.72;100.00
57948;BME280;43754;56.992;24.292;2023-01-01T02:45:00;100168.25;;;7.70;100.00
57948;BME280;43754;56.992;24.292;2023-01-01T02:47:32;100172.59;;;7.71;100.00
57948;BME280;43754;56.992;24.292;2023-01-01T02:50:07;100170.09;;;7.69;100.00
57948;BME280;43754;56.992;24.292;2023-01-01T02:52:51;100173.59;;;7.70;100.00
57948;BME280;43754;56.992;24.292;2023-01-01T02:55:37;100170.75;;;7.71;100.00
57948;BME280;43754;56.992;24.292;2023-01-01T02:58:17;100166.91;;;7.74;100.00
57948;BME280;43754;56.992;24.292;2023-01-01T03:01:16;100174.91;;;7.74;100.00
57948;BME280;43754;56.992;24.292;2023-01-01T03:03:59;100177.56;;;7.74;100.00
57948;BME280;43754;56.992;24.292;2023-01-01T03:06:37;100176.56;;;7.75;100.00
57948;BME280;43754;56.992;24.292;2023-01-01T03:09:17;100167.25;;;7.71;100.00
57948;BME280;43754;56.992;24.292;2023-01-01T03:11:55;100167.25;;;7.71;100.00
57948;BME280;43754;56.992;24.292;2023-01-01T03:14:35;100165.75;;;7.68;100.00
57948;BME280;43754;56.992;24.292;2023-01-01T03:17:18;100169.94;;;7.71;100.00
57948;BME280;43754;56.992;24.292;2023-01-01T03:19:52;100168.94;;;7.72;100.00
57948;BME280;43754;56.992;24.292;2023-01-01T03:22:30;100182.75;;;7.75;100.00
57948;BME280;43754;56.992;24.292;2023-01-01T03:25:07;100173.53;;;7.78;100.00
57948;BME280;43754;56.992;24.292;2023-01-01T03:27:43;100166.84;;;7.82;100.00
57948;BME280;43754;56.992;24.292;2023-01-01T03:30:19;100174.69;;;7.83;100.00
57948;BME280;43754;56.992;24.292;2023-01-01T03:32:56;100171.34;;;7.81;100.00
57948;BME280;43754;56.992;24.292;2023-01-01T03:35:38;100162.19;;;7.84;100.00
57948;BME280;43754;56.992;24.292;2023-01-01T03:38:15;100168.34;;;7.84;100.00
57948;BME280;43754;56.992;24.292;2023-01-01T03:40:50;100177.16;;;7.85;100.00
57948;BME280;43754;56.992;24.292;2023-01-01T03:43:33;100179.19;;;7.83;100.00
57948;BME280;43754;56.992;24.292;2023-01-01T03:46:09;100171.66;;;7.86;100.00
57948;BME280;43754;56.992;24.292;2023-01-01T03:48:45;100173.34;;;7.88;100.00
57948;BME280;43754;56.992;24.292;2023-01-01T03:51:55;100175.53;;;7.84;100.00
57948;BME280;43754;56.992;24.292;2023-01-01T03:54:35;100181.19;;;7.81;100.00
57948;BME280;43754;56.992;24.292;2023-01-01T03:57:15;100184.88;;;7.80;100.00
57948;BME280;43754;56.992;24.292;2023-01-01T03:59:56;100179.72;;;7.78;100.00
57948;BME280;43754;56.992;24.292;2023-01-01T04:02:47;100176.22;;;7.78;100.00
57948;BME280;43754;56.992;24.292;2023-01-01T04:05:22;100168.03;;;7.79;100.00
57948;BME280;43754;56.992;24.292;2023-01-01T04:07:55;100175.84;;;7.81;100.00
57948;BME280;43754;56.992;24.292;2023-01-01T04:10:34;100168.09;;;7.71;100.00
57948;BME280;43754;56.992;24.292;2023-01-01T04:13:06;100163.25;;;7.75;100.00
57948;BME280;43754;56.992;24.292;2023-01-01T04:15:38;100168.22;;;7.78;100.00
57948;BME280;43754;56.992;24.292;2023-01-01T04:18:10;100168.22;;;7.78;100.00
57948;BME280;43754;56.992;24.292;2023-01-01T04:20:44;100173.91;;;7.75;100.00
57948;BME280;43754;56.992;24.292;2023-01-01T04:23:16;100173.91;;;7.75;100.00
57948;BME280;43754;56.992;24.292;2023-01-01T04:25:48;100182.91;;;7.74;100.00
57948;BME280;43754;56.992;24.292;2023-01-01T04:28:20;100179.25;;;7.75;100.00
57948;BME280;43754;56.992;24.292;2023-01-01T04:30:51;100182.91;;;7.74;100.00
57948;BME280;43754;56.992;24.292;2023-01-01T04:33:22;100177.94;;;7.71;100.00
57948;BME280;43754;56.992;24.292;2023-01-01T04:35:56;100169.94;;;7.71;100.00
57948;BME280;43754;56.992;24.292;2023-01-01T04:38:28;100172.06;;;7.75;100.00
57948;BME280;43754;56.992;24.292;2023-01-01T04:41:00;100173.53;;;7.78;100.00
57948;BME280;43754;56.992;24.292;2023-01-01T04:43:32;100173.19;;;7.81;100.00
57948;BME280;43754;56.992;24.292;2023-01-01T04:46:04;100174.84;;;7.82;100.00
57948;BME280;43754;56.992;24.292;2023-01-01T04:48:37;100171.34;;;7.81;100.00
57948;BME280;43754;56.992;24.292;2023-01-01T04:51:11;100166.03;;;7.81;100.00
57948;BME280;43754;56.992;24.292;2023-01-01T04:53:44;100173.84;;;7.83;100.00
57948;BME280;43754;56.992;24.292;2023-01-01T04:56:18;100158.31;;;7.86;100.00
57948;BME280;43754;56.992;24.292;2023-01-01T04:58:51;100167.81;;;7.89;100.00
57948;BME280;43754;56.992;24.292;2023-01-01T05:01:25;100163.66;;;7.86;100.00
57948;BME280;43754;56.992;24.292;2023-01-01T05:03:58;100164.31;;;7.89;100.00
57948;BME280;43754;56.992;24.292;2023-01-01T05:06:31;100163.81;;;7.85;100.00
57948;BME280;43754;56.992;24.292;2023-01-01T05:09:03;100163.81;;;7.85;100.00
57948;BME280;43754;56.992;24.292;2023-01-01T05:11:36;100160.16;;;7.86;100.00
57948;BME280;43754;56.992;24.292;2023-01-01T05:14:08;100168.00;;;7.88;100.00
57948;BME280;43754;56.992;24.292;2023-01-01T05:16:40;100166.31;;;7.86;100.00
57948;BME280;43754;56.992;24.292;2023-01-01T05:19:12;100174.50;;;7.85;100.00
57948;BME280;43754;56.992;24.292;2023-01-01T05:21:46;100175.34;;;7.85;100.00
57948;BME280;43754;56.992;24.292;2023-01-01T05:24:18;100175.69;;;7.82;100.00
57948;BME280;43754;56.992;24.292;2023-01-01T05:26:50;100169.16;;;7.85;100.00
57948;BME280;43754;56.992;24.292;2023-01-01T05:29:22;100176.16;;;7.86;100.00
57948;BME280;43754;56.992;24.292;2023-01-01T05:31:54;100177.34;;;7.83;100.00
57948;BME280;43754;56.992;24.292;2023-01-01T05:34:27;100178.34;;;7.82;100.00
57948;BME280;43754;56.992;24.292;2023-01-01T05:37:00;100184.38;;;7.84;100.00
57948;BME280;43754;56.992;24.292;2023-01-01T05:39:32;100174.22;;;7.80;100.00
57948;BME280;43754;56.992;24.292;2023-01-01T05:42:04;100174.03;;;7.81;100.00
57948;BME280;43754;56.992;24.292;2023-01-01T05:44:36;100178.19;;;7.84;100.00
57948;BME280;43754;56.992;24.292;2023-01-01T05:47:08;100171.56;;;7.80;100.00
57948;BME280;43754;56.992;24.292;2023-01-01T05:49:40;100177.72;;;7.80;100.00
57948;BME280;43754;56.992;24.292;2023-01-01T05:52:13;100180.38;;;7.80;100.00
57948;BME280;43754;56.992;24.292;2023-01-01T05:54:45;100170.72;;;7.79;100.00
57948;BME280;43754;56.992;24.292;2023-01-01T05:57:17;100176.88;;;7.80;100.00
57948;BME280;43754;56.992;24.292;2023-01-01T05:59:49;100180.56;;;7.79;100.00
57948;BME280;43754;56.992;24.292;2023-01-01T06:02:21;100174.22;;;7.80;100.00
57948;BME280;43754;56.992;24.292;2023-01-01T06:04:53;100180.19;;;7.82;100.00
57948;BME280;43754;56.992;24.292;2023-01-01T06:07:27;100175.84;;;7.81;100.00
57948;BME280;43754;56.992;24.292;2023-01-01T06:09:59;100171.19;;;7.83;100.00
57948;BME280;43754;56.992;24.292;2023-01-01T06:12:31;100172.19;;;7.82;100.00
57948;BME280;43754;56.992;24.292;2023-01-01T06:15:03;100173.19;;;7.81;100.00
57948;BME280;43754;56.992;24.292;2023-01-01T06:17:35;100175.38;;;7.77;100.00
57948;BME280;43754;56.992;24.292;2023-01-01T06:20:09;100173.19;;;7.81;100.00
57948;BME280;43754;56.992;24.292;2023-01-01T06:22:43;100170.19;;;7.84;100.00
57948;BME280;43754;56.992;24.292;2023-01-01T06:25:15;100170.81;;;7.86;100.00
57948;BME280;43754;56.992;24.292;2023-01-01T06:27:47;100173.69;;;7.84;100.00
57948;BME280;43754;56.992;24.292;2023-01-01T06:30:19;100179.19;;;7.83;100.00
57948;BME280;43754;56.992;24.292;2023-01-01T06:32:52;100171.19;;;7.83;100.00
57948;BME280;43754;56.992;24.292;2023-01-01T06:35:24;100173.50;;;7.86;100.00
57948;BME280;43754;56.992;24.292;2023-01-01T06:37:58;100169.53;;;7.82;100.00
57948;BME280;43754;56.992;24.292;2023-01-01T06:40:31;100167.84;;;7.81;100.00
57948;BME280;43754;56.992;24.292;2023-01-01T06:43:02;100158.22;;;7.80;100.00
57948;BME280;43754;56.992;24.292;2023-01-01T06:45:34;100161.88;;;7.79;100.00
57948;BME280;43754;56.992;24.292;2023-01-01T06:48:06;100164.06;;;7.75;100.00
57948;BME280;43754;56.992;24.292;2023-01-01T06:50:38;100165.06;;;7.74;100.00
57948;BME280;43754;56.992;24.292;2023-01-01T06:53:12;100163.59;;;7.72;100.00
57948;BME280;43754;56.992;24.292;2023-01-01T06:55:47;100167.63;;;7.68;100.00
57948;BME280;43754;56.992;24.292;2023-01-01T06:58:27;100172.13;;;7.67;100.00
57948;BME280;43754;56.992;24.292;2023-01-01T07:01:04;100173.94;;;7.67;100.00
57948;BME280;43754;56.992;24.292;2023-01-01T07:03:40;100167.94;;;7.65;100.00
57948;BME280;43754;56.992;24.292;2023-01-01T07:06:12;100171.94;;;7.69;100.00
57948;BME280;43754;56.992;24.292;2023-01-01T07:08:45;100165.22;;;7.73;100.00
57948;BME280;43754;56.992;24.292;2023-01-01T07:11:17;100160.72;;;7.73;100.00
57948;BME280;43754;56.992;24.292;2023-01-01T07:13:50;100161.09;;;7.70;100.00
57948;BME280;43754;56.992;24.292;2023-01-01T07:16:22;100153.25;;;7.69;100.00
57948;BME280;43754;56.992;24.292;2023-01-01T07:18:55;100155.44;;;7.65;100.00
57948;BME280;43754;56.992;24.292;2023-01-01T07:21:30;100153.13;;;7.62;100.00
57948;BME280;43754;56.992;24.292;2023-01-01T07:24:05;100154.44;;;7.66;100.00
57948;BME280;43754;56.992;24.292;2023-01-01T07:26:37;100150.41;;;7.70;100.00
57948;BME280;43754;56.992;24.292;2023-01-01T07:29:10;100154.75;;;7.71;100.00
57948;BME280;43754;56.992;24.292;2023-01-01T07:31:43;100157.59;;;7.70;100.00
57948;BME280;43754;56.992;24.292;2023-01-01T07:34:16;100153.09;;;7.70;100.00
57948;BME280;43754;56.992;24.292;2023-01-01T07:36:50;100144.72;;;7.73;100.00
57948;BME280;43754;56.992;24.292;2023-01-01T07:39:23;100156.22;;;7.74;100.00
57948;BME280;43754;56.992;24.292;2023-01-01T07:41:55;100149.22;;;7.73;100.00
57948;BME280;43754;56.992;24.292;2023-01-01T07:44:27;100144.91;;;7.72;100.00
57948;BME280;43754;56.992;24.292;2023-01-01T07:47:02;100148.22;;;7.74;100.00
57948;BME280;43754;56.992;24.292;2023-01-01T07:49:35;100150.91;;;7.74;100.00
57948;BME280;43754;56.992;24.292;2023-01-01T07:52:07;100155.91;;;7.69;100.00
57948;BME280;43754;56.992;24.292;2023-01-01T07:54:40;100152.63;;;7.67;100.00
57948;BME280;43754;56.992;24.292;2023-01-01T07:57:12;100154.28;;;7.68;100.00
57948;BME280;43754;56.992;24.292;2023-01-01T07:59:44;100151.25;;;7.71;100.00
57948;BME280;43754;56.992;24.292;2023-01-01T08:02:16;100155.59;;;7.72;100.00
57948;BME280;43754;56.992;24.292;2023-01-01T08:04:48;100159.94;;;7.65;100.00
57948;BME280;43754;56.992;24.292;2023-01-01T08:07:20;100162.44;;;7.66;100.00
57948;BME280;43754;56.992;24.292;2023-01-01T08:09:53;100166.25;;;7.72;100.00
57948;BME280;43754;56.992;24.292;2023-01-01T08:12:25;100166.53;;;7.77;100.00
57948;BME280;43754;56.992;24.292;2023-01-01T08:14:57;100163.53;;;7.80;100.00
57948;BME280;43754;56.992;24.292;2023-01-01T08:17:29;100164.53;;;7.79;100.00
57948;BME280;43754;56.992;24.292;2023-01-01T08:20:01;100172.56;;;7.79;100.00
57948;BME280;43754;56.992;24.292;2023-01-01T08:22:33;100176.22;;;7.78;100.00
57948;BME280;43754;56.992;24.292;2023-01-01T08:25:08;100172.72;;;7.77;100.00
57948;BME280;43754;56.992;24.292;2023-01-01T08:27:40;100171.59;;;7.72;100.00
57948;BME280;43754;56.992;24.292;2023-01-01T08:30:13;100168.88;;;7.80;100.00
57948;BME280;43754;56.992;24.292;2023-01-01T08:32:45;100178.53;;;7.81;100.00
57948;BME280;43754;56.992;24.292;2023-01-01T08:35:17;100172.03;;;7.83;100.00
57948;BME280;43754;56.992;24.292;2023-01-01T08:37:49;100173.84;;;7.83;100.00
57948;BME280;43754;56.992;24.292;2023-01-01T08:40:23;100167.03;;;7.80;100.00
57948;BME280;43754;56.992;24.292;2023-01-01T08:42:55;100171.19;;;7.83;100.00
57948;BME280;43754;56.992;24.292;2023-01-01T08:45:27;100178.00;;;7.85;100.00
57948;BME280;43754;56.992;24.292;2023-01-01T08:47:59;100173.34;;;7.88;100.00
57948;BME280;43754;56.992;24.292;2023-01-01T08:50:31;100169.31;;;7.92;100.00
57948;BME280;43754;56.992;24.292;2023-01-01T08:53:03;100179.97;;;7.92;100.00
57948;BME280;43754;56.992;24.292;2023-01-01T08:55:36;100172.13;;;7.90;100.00
57948;BME280;43754;56.992;24.292;2023-01-01T08:58:08;100181.97;;;7.90;100.00
57948;BME280;43754;56.992;24.292;2023-01-01T09:00:40;100193.38;;;7.83;100.00
57948;BME280;43754;56.992;24.292;2023-01-01T09:03:12;100196.03;;;7.83;100.00
57948;BME280;43754;56.992;24.292;2023-01-01T09:05:44;100203.22;;;7.83;100.00
57948;BME280;43754;56.992;24.292;2023-01-01T09:08:17;100193.38;;;7.83;100.00
57948;BME280;43754;56.992;24.292;2023-01-01T09:10:51;100183.53;;;7.84;100.00
57948;BME280;43754;56.992;24.292;2023-01-01T09:13:23;100177.06;;;7.78;100.00
57948;BME280;43754;56.992;24.292;2023-01-01T09:15:55;100186.88;;;7.78;100.00
57948;BME280;43754;56.992;24.292;2023-01-01T09:18:27;100193.53;;;7.82;100.00
57948;BME280;43754;56.992;24.292;2023-01-01T09:20:59;100179.25;;;7.75;100.00
57948;BME280;43754;56.992;24.292;2023-01-01T09:23:31;100182.38;;;7.78;100.00
57948;BME280;43754;56.992;24.292;2023-01-01T09:26:06;100189.19;;;7.81;100.00
57948;BME280;43754;56.992;24.292;2023-01-01T09:28:39;100189.88;;;7.83;100.00
57948;BME280;43754;56.992;24.292;2023-01-01T09:31:11;100188.03;;;7.83;100.00
57948;BME280;43754;56.992;24.292;2023-01-01T09:33:43;100174.69;;;7.83;100.00
57948;BME280;43754;56.992;24.292;2023-01-01T09:36:26;100181.88;;;7.83;100.00
57948;BME280;43754;56.992;24.292;2023-01-01T09:38:59;100183.34;;;7.85;100.00
57948;BME280;43754;56.992;24.292;2023-01-01T09:41:42;100173.84;;;7.83;100.00
57948;BME280;43754;56.992;24.292;2023-01-01T09:44:28;100191.53;;;7.84;100.00
57948;BME280;43754;56.992;24.292;2023-01-01T09:47:18;100199.06;;;7.80;100.00
57948;BME280;43754;56.992;24.292;2023-01-01T09:49:54;100194.53;;;7.81;100.00
57948;BME280;43754;56.992;24.292;2023-01-01T09:52:34;100188.72;;;7.77;100.00
57948;BME280;43754;56.992;24.292;2023-01-01T09:55:14;100194.72;;;7.79;100.00
57948;BME280;43754;56.992;24.292;2023-01-01T09:57:50;100188.06;;;7.75;100.00
57948;BME280;43754;56.992;24.292;2023-01-01T10:00:22;100193.56;;;7.74;100.00
57948;BME280;43754;56.992;24.292;2023-01-01T10:03:06;100203.66;;;7.56;100.00
57948;BME280;43754;56.992;24.292;2023-01-01T10:05:48;100190.81;;;7.20;100.00
57948;BME280;43754;56.992;24.292;2023-01-01T10:08:33;100202.03;;;6.91;100.00
57948;BME280;43754;56.992;24.292;2023-01-01T10:11:13;100207.91;;;6.71;100.00
57948;BME280;43754;56.992;24.292;2023-01-01T10:13:52;100205.75;;;6.58;100.00
57948;BME280;43754;56.992;24.292;2023-01-01T10:16:32;100208.56;;;6.40;100.00
57948;BME280;43754;56.992;24.292;2023-01-01T10:19:17;100214.88;;;6.31;100.00
57948;BME280;43754;56.992;24.292;2023-01-01T10:21:53;100221.53;;;6.19;100.00
57948;BME280;43754;56.992;24.292;2023-01-01T10:24:37;100215.56;;;6.17;100.00
57948;BME280;43754;56.992;24.292;2023-01-01T10:27:20;100217.19;;;6.10;100.00
57948;BME280;43754;56.992;24.292;2023-01-01T10:29:56;100226.97;;;5.93;100.00
57948;BME280;43754;56.992;24.292;2023-01-01T10:32:35;100235.78;;;5.94;100.00
57948;BME280;43754;56.992;24.292;2023-01-01T10:35:12;100220.31;;;5.97;100.00
57948;BME280;43754;56.992;24.292;2023-01-01T10:37:45;100268.38;;;5.96;100.00
57948;BME280;43754;56.992;24.292;2023-01-01T10:40:19;100244.78;;;6.01;100.00
57948;BME280;43754;56.992;24.292;2023-01-01T10:42:52;100251.75;;;6.02;100.00
57948;BME280;43754;56.992;24.292;2023-01-01T10:45:30;100274.34;;;5.90;100.00
57948;BME280;43754;56.992;24.292;2023-01-01T10:48:12;100281.00;;;5.94;100.00
57948;BME280;43754;56.992;24.292;2023-01-01T10:50:48;100276.66;;;5.93;100.00
57948;BME280;43754;56.992;24.292;2023-01-01T10:53:25;100276.00;;;5.91;100.00
57948;BME280;43754;56.992;24.292;2023-01-01T10:56:06;100276.59;;;5.85;100.00
57948;BME280;43754;56.992;24.292;2023-01-01T10:58:42;100286.13;;;5.87;100.00
57948;BME280;43754;56.992;24.292;2023-01-01T11:01:22;100291.75;;;5.84;100.00
57948;BME280;43754;56.992;24.292;2023-01-01T11:03:57;100295.97;;;5.95;100.00
57948;BME280;43754;56.992;24.292;2023-01-01T11:06:32;100293.69;;;5.74;100.00
57948;BME280;43754;56.992;24.292;2023-01-01T11:09:06;100297.00;;;5.76;100.00
57948;BME280;43754;56.992;24.292;2023-01-01T11:11:54;100304.88;;;5.86;100.00
57948;BME280;43754;56.992;24.292;2023-01-01T11:14:37;100293.63;;;5.92;100.00
57948;BME280;43754;56.992;24.292;2023-01-01T11:17:11;100284.34;;;5.96;100.00
57948;BME280;43754;56.992;24.292;2023-01-01T11:19:47;100289.69;;;6.04;100.00
57948;BME280;43754;56.992;24.292;2023-01-01T11:22:37;100300.16;;;6.06;100.00
57948;BME280;43754;56.992;24.292;2023-01-01T11:25:21;100311.63;;;6.06;100.00
57948;BME280;43754;56.992;24.292;2023-01-01T11:28:17;100313.41;;;5.97;100.00
57948;BME280;43754;56.992;24.292;2023-01-01T11:30:59;100323.91;;;5.99;100.00
57948;BME280;43754;56.992;24.292;2023-01-01T11:33:35;100333.88;;;5.97;100.00
57948;BME280;43754;56.992;24.292;2023-01-01T11:36:09;100336.19;;;5.92;100.00
57948;BME280;43754;56.992;24.292;2023-01-01T11:38:41;100349.91;;;5.79;100.00
57948;BME280;43754;56.992;24.292;2023-01-01T11:41:13;100352.66;;;5.70;100.00
57948;BME280;43754;56.992;24.292;2023-01-01T11:43:46;100361.25;;;5.64;100.00
57948;BME280;43754;56.992;24.292;2023-01-01T11:46:23;100361.94;;;5.66;100.00
57948;BME280;43754;56.992;24.292;2023-01-01T11:48:56;100362.31;;;5.71;100.00
57948;BME280;43754;56.992;24.292;2023-01-01T11:51:30;100365.13;;;5.69;100.00
57948;BME280;43754;56.992;24.292;2023-01-01T11:54:11;100368.25;;;5.65;100.00
57948;BME280;43754;56.992;24.292;2023-01-01T11:56:53;100366.91;;;5.61;100.00
57948;BME280;43754;56.992;24.292;2023-01-01T11:59:30;100370.63;;;5.68;100.00
57948;BME280;43754;56.992;24.292;2023-01-01T12:02:11;100380.59;;;5.74;100.00
57948;BME280;43754;56.992;24.292;2023-01-01T12:04:50;100374.66;;;5.80;100.00
57948;BME280;43754;56.992;24.292;2023-01-01T12:07:26;100380.28;;;5.77;100.00
57948;BME280;43754;56.992;24.292;2023-01-01T12:10:02;100369.41;;;5.62;100.00
57948;BME280;43754;56.992;24.292;2023-01-01T12:12:38;100383.69;;;5.61;100.00
57948;BME280;43754;56.992;24.292;2023-01-01T12:15:17;100388.53;;;5.66;100.00
57948;BME280;43754;56.992;24.292;2023-01-01T12:17:57;100396.59;;;5.56;100.00
57948;BME280;43754;56.992;24.292;2023-01-01T12:20:37;100397.41;;;5.48;100.00
57948;BME280;43754;56.992;24.292;2023-01-01T12:23:14;100403.53;;;5.49;100.00
57948;BME280;43754;56.992;24.292;2023-01-01T12:25:54;100407.19;;;5.48;100.00
57948;BME280;43754;56.992;24.292;2023-01-01T12:28:34;100423.97;;;5.48;100.00
57948;BME280;43754;56.992;24.292;2023-01-01T12:31:11;100419.28;;;5.42;100.00
57948;BME280;43754;56.992;24.292;2023-01-01T12:33:58;100440.06;;;5.47;100.00
57948;BME280;43754;56.992;24.292;2023-01-01T12:36:41;100445.31;;;5.39;100.00
57948;BME280;43754;56.992;24.292;2023-01-01T12:42:36;100462.09;;;5.39;100.00
57948;BME280;43754;56.992;24.292;2023-01-01T12:45:27;100463.72;;;5.32;100.00
57948;BME280;43754;56.992;24.292;2023-01-01T12:48:22;100463.84;;;5.31;100.00
57948;BME280;43754;56.992;24.292;2023-01-01T12:51:03;100471.69;;;5.32;100.00
57948;BME280;43754;56.992;24.292;2023-01-01T12:53:47;100484.06;;;5.24;100.00
57948;BME280;43754;56.992;24.292;2023-01-01T12:56:22;100480.13;;;5.28;100.00
57948;BME280;43754;56.992;24.292;2023-01-01T12:59:01;100490.75;;;5.28;100.00
57948;BME280;43754;56.992;24.292;2023-01-01T13:01:36;100496.44;;;5.33;100.00
57948;BME280;43754;56.992;24.292;2023-01-01T13:04:11;100496.59;;;5.31;100.00
57948;BME280;43754;56.992;24.292;2023-01-01T13:06:47;100503.03;;;5.29;100.00
57948;BME280;43754;56.992;24.292;2023-01-01T13:09:24;100501.06;;;5.31;100.00
57948;BME280;43754;56.992;24.292;2023-01-01T13:11:59;100505.25;;;5.16;100.00
57948;BME280;43754;56.992;24.292;2023-01-01T13:14:37;100494.66;;;5.06;100.00
57948;BME280;43754;56.992;24.292;2023-01-01T13:17:17;100487.53;;;5.06;100.00
57948;BME280;43754;56.992;24.292;2023-01-01T13:19:51;100503.94;;;5.02;100.00
57948;BME280;43754;56.992;24.292;2023-01-01T13:22:38;100512.19;;;4.99;100.00
57948;BME280;43754;56.992;24.292;2023-01-01T13:25:21;100511.75;;;5.03;100.00
57948;BME280;43754;56.992;24.292;2023-01-01T13:28:02;100512.44;;;5.05;100.00